createdAt,value
2017-10-11T00:00:38.082Z,99235.48
2017-10-11T00:03:05.570Z,99237.59
2017-10-11T00:05:33.234Z,99234.39
2017-10-11T00:08:00.723Z,99240.60
2017-10-11T00:10:29.203Z,99235.78
2017-10-11T00:12:56.697Z,99232.41
2017-10-11T00:15:24.180Z,99233.69
2017-10-11T00:17:51.677Z,99228.69
2017-10-11T00:20:19.159Z,99226.77
2017-10-11T00:22:46.675Z,99229.84
2017-10-11T00:25:14.162Z,99223.39
2017-10-11T00:27:41.689Z,99225.69
2017-10-11T00:30:09.190Z,99229.66
2017-10-11T00:32:36.686Z,99224.83
2017-10-11T00:35:04.480Z,99224.97
2017-10-11T00:37:31.955Z,99219.86
2017-10-11T00:39:59.439Z,99216.78
2017-10-11T00:42:26.917Z,99221.00
2017-10-11T00:44:54.387Z,99223.35
2017-10-11T00:47:21.882Z,99225.81
2017-10-11T00:49:49.352Z,99222.73
2017-10-11T00:52:16.871Z,99232.05
2017-10-11T00:54:44.407Z,99225.45
2017-10-11T00:57:12.150Z,99227.14
2017-10-11T00:59:39.696Z,99217.33
2017-10-11T01:02:07.166Z,99216.17
2017-10-11T01:04:34.644Z,99211.06
2017-10-11T01:07:02.115Z,99215.52
2017-10-11T01:09:29.918Z,99215.46
2017-10-11T01:11:57.391Z,99212.33
2017-10-11T01:14:24.919Z,99215.42
2017-10-11T01:16:52.396Z,99209.39
2017-10-11T01:19:19.882Z,99218.34
2017-10-11T01:21:47.362Z,99214.56
2017-10-11T01:24:14.843Z,99217.70
2017-10-11T01:26:42.319Z,99220.16
2017-10-11T01:29:09.790Z,99212.28
2017-10-11T01:31:37.287Z,99208.55
2017-10-11T01:34:04.767Z,99211.87
2017-10-11T01:36:32.327Z,99212.81
2017-10-11T01:38:59.817Z,99213.95
2017-10-11T01:41:27.352Z,99208.43
2017-10-11T01:43:54.842Z,99219.86
2017-10-11T01:46:22.318Z,99216.91
2017-10-11T01:48:49.807Z,99215.52
2017-10-11T01:51:17.275Z,99213.53
2017-10-11T01:53:44.758Z,99218.35
2017-10-11T01:56:12.254Z,99214.14
2017-10-11T01:58:39.744Z,99215.09
2017-10-11T02:01:07.231Z,99218.42
2017-10-11T02:03:34.705Z,99220.56
2017-10-11T02:06:02.181Z,99216.11
2017-10-11T02:08:29.787Z,99216.62
2017-10-11T02:10:57.340Z,99218.23
2017-10-11T02:13:24.821Z,99220.33
2017-10-11T02:15:52.295Z,99216.44
2017-10-11T02:18:19.763Z,99225.14
2017-10-11T02:20:47.285Z,99222.06
2017-10-11T02:23:14.764Z,99218.44
2017-10-11T02:25:42.256Z,99224.47
2017-10-11T02:28:09.724Z,99226.61
2017-10-11T02:30:37.190Z,99222.71
2017-10-11T02:33:04.667Z,99227.69
2017-10-11T02:35:32.136Z,99226.30
2017-10-11T02:37:59.671Z,99220.39
2017-10-11T02:40:27.149Z,99223.23
2017-10-11T02:42:54.617Z,99223.02
2017-10-11T02:45:22.108Z,99219.48
2017-10-11T02:47:49.608Z,99224.84
2017-10-11T02:50:17.116Z,99218.03
2017-10-11T02:52:44.579Z,99218.89
2017-10-11T02:55:12.035Z,99215.08
2017-10-11T02:57:39.511Z,99219.22
2017-10-11T03:00:07.002Z,99220.66
2017-10-11T03:02:34.572Z,99219.78
2017-10-11T03:05:02.135Z,99218.69
2017-10-11T03:07:29.627Z,99215.86
2017-10-11T03:09:57.112Z,99211.03
2017-10-11T03:12:24.586Z,99205.86
2017-10-11T03:14:52.088Z,99201.05
2017-10-11T03:17:19.560Z,99195.55
2017-10-11T03:19:47.034Z,99198.55
2017-10-11T03:22:14.560Z,99192.13
2017-10-11T03:24:42.291Z,99197.72
2017-10-11T03:27:09.801Z,99199.14
2017-10-11T03:29:37.263Z,99201.77
2017-10-11T03:32:05.599Z,99198.05
2017-10-11T03:34:33.086Z,99195.92
2017-10-11T03:37:00.570Z,99199.38
2017-10-11T03:39:28.075Z,99205.26
2017-10-11T03:41:55.542Z,99206.30
2017-10-11T03:44:23.002Z,99207.55
2017-10-11T03:46:50.545Z,99210.20
2017-10-11T03:49:18.003Z,99211.96
2017-10-11T03:51:45.467Z,99216.20
2017-10-11T03:54:12.934Z,99213.69
2017-10-11T03:56:40.807Z,99210.75
2017-10-11T03:59:08.869Z,99216.63
2017-10-11T04:01:36.343Z,99213.25
2017-10-11T04:04:03.828Z,99214.33
2017-10-11T04:06:31.287Z,99213.03
2017-10-11T04:08:58.784Z,99200.13
2017-10-11T04:11:26.331Z,99201.66
2017-10-11T04:13:53.827Z,99199.63
2017-10-11T04:16:21.304Z,99207.63
2017-10-11T04:18:48.857Z,99204.33
2017-10-11T04:21:16.681Z,99203.49
2017-10-11T04:23:44.140Z,99205.56
2017-10-11T04:26:11.625Z,99204.91
2017-10-11T04:28:39.104Z,99199.08
2017-10-11T04:31:06.555Z,99202.79
2017-10-11T04:33:34.008Z,99199.45
2017-10-11T04:36:01.529Z,99195.46
2017-10-11T04:38:29.006Z,99200.87
2017-10-11T04:40:56.493Z,99201.12
2017-10-11T04:43:23.956Z,99198.89
2017-10-11T04:45:51.711Z,99202.87
2017-10-11T04:48:19.169Z,99202.41
2017-10-11T04:50:46.618Z,99203.97
2017-10-11T04:53:14.114Z,99201.44
2017-10-11T04:55:41.571Z,99211.97
2017-10-11T04:58:09.036Z,99208.37
2017-10-11T05:00:36.503Z,99201.47
2017-10-11T05:03:04.403Z,99207.36
2017-10-11T05:05:31.875Z,99208.44
2017-10-11T05:07:59.337Z,99199.23
2017-10-11T05:10:26.814Z,99207.00
2017-10-11T05:12:54.333Z,99207.23
2017-10-11T05:15:21.921Z,99204.16
2017-10-11T05:17:49.410Z,99206.03
2017-10-11T05:20:16.939Z,99208.56
2017-10-11T05:22:44.455Z,99216.34
2017-10-11T05:25:11.950Z,99211.56
2017-10-11T05:27:40.090Z,99212.27
2017-10-11T05:30:07.569Z,99206.31
2017-10-11T05:32:35.718Z,99208.05
2017-10-11T05:35:05.039Z,99207.34
2017-10-11T05:37:32.742Z,99210.84
2017-10-11T05:40:00.229Z,99210.95
2017-10-11T05:42:30.014Z,99214.64
2017-10-11T05:44:57.558Z,99216.26
2017-10-11T05:47:25.031Z,99215.05
2017-10-11T05:49:52.518Z,99220.68
2017-10-11T05:52:20.088Z,99225.06
2017-10-11T05:54:47.640Z,99222.43
2017-10-11T05:57:15.124Z,99225.46
2017-10-11T05:59:42.626Z,99221.73
2017-10-11T06:02:10.120Z,99230.75
2017-10-11T06:04:37.586Z,99227.37
2017-10-11T06:07:05.065Z,99228.88
2017-10-11T06:09:32.560Z,99231.98
2017-10-11T06:12:00.470Z,99228.88
2017-10-11T06:14:27.946Z,99232.39
2017-10-11T06:16:55.420Z,99234.81
2017-10-11T06:19:22.949Z,99237.42
2017-10-11T06:21:50.524Z,99241.73
2017-10-11T06:24:18.012Z,99247.05
2017-10-11T06:26:45.568Z,99248.49
2017-10-11T06:29:13.036Z,99244.69
2017-10-11T06:31:40.615Z,99251.73
2017-10-11T06:34:08.114Z,99249.85
2017-10-11T06:36:35.585Z,99244.17
2017-10-11T06:39:03.073Z,99252.38
2017-10-11T06:41:30.544Z,99254.95
2017-10-11T06:43:58.031Z,99256.89
2017-10-11T06:46:25.514Z,99262.02
2017-10-11T06:48:53.358Z,99258.62
2017-10-11T06:51:20.887Z,99262.01
2017-10-11T06:53:48.460Z,99260.09
2017-10-11T06:56:15.982Z,99258.62
2017-10-11T06:58:43.539Z,99257.42
2017-10-11T07:01:11.037Z,99246.83
2017-10-11T07:03:38.601Z,99258.27
2017-10-11T07:06:06.116Z,99256.30
2017-10-11T07:08:33.632Z,99254.69
2017-10-11T07:11:01.135Z,99255.04
2017-10-11T07:13:28.690Z,99255.91
2017-10-11T07:15:56.198Z,99264.05
2017-10-11T07:18:23.767Z,99253.86
2017-10-11T07:20:52.402Z,99255.13
2017-10-11T07:23:19.967Z,99256.59
2017-10-11T07:25:48.100Z,99259.16
2017-10-11T07:28:15.639Z,99258.03
2017-10-11T07:30:43.468Z,99257.42
2017-10-11T07:33:10.957Z,99256.22
2017-10-11T07:35:38.452Z,99257.84
2017-10-11T07:38:05.936Z,99266.58
2017-10-11T07:40:33.415Z,99258.69
2017-10-11T07:43:00.976Z,99268.25
2017-10-11T07:45:28.469Z,99267.22
2017-10-11T07:47:55.958Z,99268.30
2017-10-11T07:50:23.435Z,99262.41
2017-10-11T07:52:50.949Z,99267.14
2017-10-11T07:55:18.529Z,99265.79
2017-10-11T07:57:46.023Z,99265.44
2017-10-11T08:00:13.599Z,99268.03
2017-10-11T08:02:41.107Z,99275.83
2017-10-11T08:05:08.629Z,99272.55
2017-10-11T08:07:36.340Z,99270.08
2017-10-11T08:10:03.890Z,99268.91
2017-10-11T08:12:31.700Z,99273.19
2017-10-11T08:14:59.334Z,99266.28
2017-10-11T08:17:26.903Z,99279.41
2017-10-11T08:19:54.392Z,99278.61
2017-10-11T08:22:21.910Z,99273.62
2017-10-11T08:24:49.455Z,99276.47
2017-10-11T08:27:16.933Z,99278.30
2017-10-11T08:29:44.410Z,99280.77
2017-10-11T08:32:11.896Z,99283.81
2017-10-11T08:34:39.380Z,99283.33
2017-10-11T08:37:06.870Z,99285.44
2017-10-11T08:39:34.384Z,99289.34
2017-10-11T08:42:01.870Z,99282.77
2017-10-11T08:44:29.667Z,99282.61
2017-10-11T08:46:57.168Z,99283.52
2017-10-11T08:49:24.653Z,99282.30
2017-10-11T08:51:52.136Z,99284.47
2017-10-11T08:54:19.623Z,99283.98
2017-10-11T08:56:47.228Z,99284.58
2017-10-11T08:59:14.701Z,99279.84
2017-10-11T09:01:42.163Z,99288.52
2017-10-11T09:04:09.710Z,99279.56
2017-10-11T09:06:37.172Z,99283.22
2017-10-11T09:09:04.633Z,99294.10
2017-10-11T09:11:32.093Z,99290.27
2017-10-11T09:13:59.596Z,99290.27
2017-10-11T09:16:27.072Z,99287.86
2017-10-11T09:18:54.903Z,99286.08
2017-10-11T09:21:22.410Z,99286.25
2017-10-11T09:23:49.887Z,99286.77
2017-10-11T09:26:17.440Z,99281.61
2017-10-11T09:28:44.937Z,99278.47
2017-10-11T09:31:12.747Z,99276.38
2017-10-11T09:33:40.207Z,99275.85
2017-10-11T09:36:07.704Z,99275.47
2017-10-11T09:38:35.204Z,99270.30
2017-10-11T09:41:02.673Z,99271.88
2017-10-11T09:43:30.160Z,99275.22
2017-10-11T09:45:57.672Z,99272.52
2017-10-11T09:48:25.455Z,99273.67
2017-10-11T09:50:52.927Z,99266.55
2017-10-11T09:53:20.395Z,99265.12
2017-10-11T09:55:47.945Z,99267.56
2017-10-11T09:58:15.464Z,99272.60
2017-10-11T10:00:42.925Z,99265.30
2017-10-11T10:03:10.447Z,99272.16
2017-10-11T10:05:37.988Z,99266.78
2017-10-11T10:08:05.495Z,99256.80
2017-10-11T10:10:32.976Z,99262.30
2017-10-11T10:13:00.460Z,99266.92
2017-10-11T10:15:27.958Z,99266.03
2017-10-11T10:17:55.463Z,99270.50
2017-10-11T10:20:22.957Z,99265.52
2017-10-11T10:22:50.434Z,99273.35
2017-10-11T10:25:17.919Z,99269.17
2017-10-11T10:27:45.402Z,99269.08
2017-10-11T10:30:12.911Z,99267.70
2017-10-11T10:32:40.404Z,99273.05
2017-10-11T10:35:07.864Z,99268.87
2017-10-11T10:37:35.341Z,99283.22
2017-10-11T10:40:02.812Z,99267.45
2017-10-11T10:42:30.338Z,99268.63
2017-10-11T10:44:57.804Z,99268.97
2017-10-11T10:47:25.267Z,99262.56
2017-10-11T10:49:52.743Z,99263.91
2017-10-11T10:52:20.236Z,99261.27
2017-10-11T10:54:47.763Z,99255.96
2017-10-11T10:57:15.291Z,99262.87
2017-10-11T10:59:42.754Z,99259.27
2017-10-11T11:02:10.248Z,99265.80
2017-10-11T11:04:37.748Z,99265.05
2017-10-11T11:07:05.239Z,99253.41
2017-10-11T11:09:32.708Z,99265.21
2017-10-11T11:12:00.557Z,99279.72
2017-10-11T11:14:28.030Z,99267.84
2017-10-11T11:16:55.526Z,99273.08
2017-10-11T11:19:23.054Z,99262.28
2017-10-11T11:21:50.519Z,99258.41
2017-10-11T11:24:18.029Z,99259.81
2017-10-11T11:26:45.502Z,99261.81
2017-10-11T11:29:12.972Z,99253.45
2017-10-11T11:31:40.476Z,99258.67
2017-10-11T11:34:07.945Z,99263.31
2017-10-11T11:36:35.441Z,99260.72
2017-10-11T11:39:02.920Z,99261.47
2017-10-11T11:41:30.383Z,99253.91
2017-10-11T11:43:57.879Z,99257.67
2017-10-11T11:46:25.409Z,99250.38
2017-10-11T11:48:52.915Z,99251.70
2017-10-11T11:51:20.397Z,99249.52
2017-10-11T11:53:48.231Z,99244.14
2017-10-11T11:56:15.690Z,99243.67
2017-10-11T11:58:43.242Z,99250.97
2017-10-11T12:01:10.739Z,99242.58
2017-10-11T12:03:38.226Z,99240.94
2017-10-11T12:06:05.722Z,99237.94
2017-10-11T12:08:33.219Z,99233.88
2017-10-11T12:11:00.727Z,99239.78
2017-10-11T12:13:28.249Z,99229.24
2017-10-11T12:15:55.777Z,99227.09
2017-10-11T12:18:23.267Z,99233.57
2017-10-11T12:20:50.746Z,99218.15
2017-10-11T12:23:18.277Z,99233.42
2017-10-11T12:25:45.797Z,99219.30
2017-10-11T12:28:13.314Z,99217.14
2017-10-11T12:30:40.798Z,99221.22
2017-10-11T12:33:08.275Z,99223.87
2017-10-11T12:35:35.783Z,99227.11
2017-10-11T12:38:04.203Z,99222.03
2017-10-11T12:40:31.681Z,99220.46
2017-10-11T12:42:59.188Z,99213.00
2017-10-11T12:45:26.744Z,99212.98
2017-10-11T12:47:54.246Z,99209.77
2017-10-11T12:50:21.733Z,99207.76
2017-10-11T12:52:49.229Z,99203.71
2017-10-11T12:55:16.718Z,99197.97
2017-10-11T12:57:44.225Z,99205.12
2017-10-11T13:00:11.714Z,99199.21
2017-10-11T13:02:39.200Z,99193.76
2017-10-11T13:05:06.658Z,99198.39
2017-10-11T13:07:34.139Z,99194.08
2017-10-11T13:10:01.600Z,99197.06
2017-10-11T13:12:29.122Z,99193.91
2017-10-11T13:14:56.584Z,99193.80
2017-10-11T13:17:24.152Z,99196.41
2017-10-11T13:19:51.740Z,99192.84
2017-10-11T13:22:19.279Z,99195.99
2017-10-11T13:24:46.776Z,99189.50
2017-10-11T13:27:14.328Z,99190.83
2017-10-11T13:29:41.838Z,99191.02
2017-10-11T13:32:09.360Z,99190.41
2017-10-11T13:34:36.862Z,99193.25
2017-10-11T13:37:04.362Z,99186.77
2017-10-11T13:39:31.868Z,99180.45
2017-10-11T13:41:59.362Z,99181.70
2017-10-11T13:44:26.862Z,99184.12
2017-10-11T13:46:54.359Z,99185.70
2017-10-11T13:49:21.836Z,99184.27
2017-10-11T13:51:49.318Z,99182.70
2017-10-11T13:54:16.815Z,99182.52
2017-10-11T13:56:44.283Z,99177.64
2017-10-11T13:59:11.773Z,99171.34
2017-10-11T14:01:39.249Z,99167.53
2017-10-11T14:04:06.740Z,99165.94
2017-10-11T14:06:34.214Z,99163.77
2017-10-11T14:09:01.718Z,99162.13
2017-10-11T14:11:29.180Z,99157.23
2017-10-11T14:13:56.688Z,99159.72
2017-10-11T14:16:24.182Z,99151.83
2017-10-11T14:18:51.644Z,99157.89
2017-10-11T14:21:19.113Z,99156.14
2017-10-11T14:23:46.600Z,99154.16
2017-10-11T14:26:14.062Z,99157.48
2017-10-11T14:28:41.544Z,99147.52
2017-10-11T14:31:09.082Z,99140.55
2017-10-11T14:33:36.558Z,99142.05
2017-10-11T14:36:04.122Z,99143.28
2017-10-11T14:38:31.628Z,99143.27
2017-10-11T14:40:59.118Z,99140.62
2017-10-11T14:43:26.630Z,99133.90
2017-10-11T14:45:54.417Z,99135.48
2017-10-11T14:48:21.932Z,99127.34
2017-10-11T14:50:49.396Z,99131.52
2017-10-11T14:53:16.883Z,99132.24
2017-10-11T14:55:44.335Z,99128.28
2017-10-11T14:58:11.834Z,99128.44
2017-10-11T15:00:39.328Z,99130.94
2017-10-11T15:03:06.850Z,99127.53
2017-10-11T15:05:34.348Z,99123.03
2017-10-11T15:08:01.896Z,99118.89
2017-10-11T15:10:29.414Z,99121.15
2017-10-11T15:12:56.882Z,99126.10
2017-10-11T15:15:24.429Z,99122.78
2017-10-11T15:17:51.914Z,99124.95
2017-10-11T15:20:19.379Z,99123.87
2017-10-11T15:22:46.910Z,99123.69
2017-10-11T15:25:14.381Z,99124.86
2017-10-11T15:27:41.862Z,99123.87
2017-10-11T15:30:09.313Z,99127.11
2017-10-11T15:32:36.790Z,99125.03
2017-10-11T15:35:04.305Z,99124.20
2017-10-11T15:37:31.778Z,99120.33
2017-10-11T15:39:59.873Z,99123.03
2017-10-11T15:42:27.370Z,99125.11
2017-10-11T15:44:54.885Z,99125.22
2017-10-11T15:47:22.630Z,99125.87
2017-10-11T15:49:50.102Z,99126.86
2017-10-11T15:52:17.576Z,99128.36
2017-10-11T15:54:45.067Z,99124.45
2017-10-11T15:57:12.554Z,99121.22
2017-10-11T15:59:40.047Z,99127.94
2017-10-11T16:02:07.534Z,99122.37
2017-10-11T16:04:35.007Z,99128.69
2017-10-11T16:07:02.494Z,99132.23
2017-10-11T16:09:29.952Z,99124.61
2017-10-11T16:11:57.439Z,99120.06
2017-10-11T16:14:24.932Z,99121.64
2017-10-11T16:16:52.400Z,99115.00
2017-10-11T16:19:19.881Z,99115.42
2017-10-11T16:21:47.380Z,99114.83
2017-10-11T16:24:14.872Z,99113.75
2017-10-11T16:26:42.355Z,99106.78
2017-10-11T16:29:09.821Z,99102.56
2017-10-11T16:31:37.306Z,99102.23
2017-10-11T16:34:04.775Z,99105.12
2017-10-11T16:36:32.257Z,99102.31
2017-10-11T16:39:00.169Z,99103.23
2017-10-11T16:41:27.627Z,99103.64
2017-10-11T16:43:55.097Z,99104.47
2017-10-11T16:46:22.592Z,99101.63
2017-10-11T16:48:50.064Z,99100.48
2017-10-11T16:51:17.543Z,99100.00
2017-10-11T16:53:45.058Z,99101.13
2017-10-11T16:56:12.560Z,99098.25
2017-10-11T16:58:40.080Z,99095.83
2017-10-11T17:01:07.849Z,99098.41
2017-10-11T17:03:35.317Z,99096.81
2017-10-11T17:06:02.865Z,99097.16
2017-10-11T17:08:30.400Z,99100.08
2017-10-11T17:10:57.877Z,99100.14
2017-10-11T17:13:25.327Z,99099.38
2017-10-11T17:15:52.825Z,99096.87
2017-10-11T17:18:20.295Z,99104.74
2017-10-11T17:20:48.050Z,99101.92
2017-10-11T17:23:15.544Z,99109.83
2017-10-11T17:25:43.062Z,99098.12
2017-10-11T17:28:10.532Z,99109.72
2017-10-11T17:30:38.023Z,99102.27
2017-10-11T17:33:05.507Z,99101.68
2017-10-11T17:35:32.976Z,99101.69
2017-10-11T17:38:00.478Z,99098.47
2017-10-11T17:40:27.946Z,99101.76
2017-10-11T17:42:55.417Z,99099.85
2017-10-11T17:45:22.918Z,99099.44
2017-10-11T17:47:50.393Z,99101.34
2017-10-11T17:50:17.873Z,99100.42
2017-10-11T17:52:45.334Z,99108.45
2017-10-11T17:55:12.827Z,99104.06
2017-10-11T17:57:40.298Z,99107.05
2017-10-11T18:00:07.761Z,99097.34
2017-10-11T18:02:35.306Z,99103.39
2017-10-11T18:05:02.786Z,99102.16
2017-10-11T18:07:30.301Z,99104.30
2017-10-11T18:09:57.765Z,99100.66
2017-10-11T18:12:25.264Z,99099.00
2017-10-11T18:14:52.755Z,99102.63
2017-10-11T18:17:20.235Z,99095.34
2017-10-11T18:19:47.703Z,99098.05
2017-10-11T18:22:15.182Z,99094.49
2017-10-11T18:24:42.666Z,99099.96
2017-10-11T18:27:10.125Z,99101.94
2017-10-11T18:29:37.627Z,99101.35
2017-10-11T18:32:05.152Z,99102.98
2017-10-11T18:34:32.621Z,99106.05
2017-10-11T18:37:00.103Z,99110.34
2017-10-11T18:39:27.584Z,99105.69
2017-10-11T18:41:56.705Z,99107.50
2017-10-11T18:44:24.218Z,99107.48
2017-10-11T18:46:51.726Z,99115.00
2017-10-11T18:49:19.395Z,99116.25
2017-10-11T18:51:46.880Z,99111.28
2017-10-11T18:54:14.359Z,99111.00
2017-10-11T18:56:41.900Z,99104.35
2017-10-11T18:59:09.386Z,99105.09
2017-10-11T19:01:36.911Z,99108.55
2017-10-11T19:04:04.392Z,99106.88
2017-10-11T19:06:31.844Z,99107.97
2017-10-11T19:08:59.348Z,99107.01
2017-10-11T19:11:27.458Z,99105.52
2017-10-11T19:13:54.944Z,99109.28
2017-10-11T19:16:22.424Z,99107.64
2017-10-11T19:18:49.885Z,99102.59
2017-10-11T19:21:17.362Z,99104.19
2017-10-11T19:23:44.824Z,99107.75
2017-10-11T19:26:12.285Z,99105.09
2017-10-11T19:28:39.841Z,99103.34
2017-10-11T19:31:07.306Z,99104.14
2017-10-11T19:33:34.784Z,99105.19
2017-10-11T19:36:02.334Z,99103.63
2017-10-11T19:38:29.797Z,99106.33
2017-10-11T19:40:57.307Z,99106.71
2017-10-11T19:43:24.790Z,99102.25
2017-10-11T19:45:52.298Z,99109.11
2017-10-11T19:48:19.769Z,99114.89
2017-10-11T19:50:47.250Z,99120.16
2017-10-11T19:53:15.138Z,99123.47
2017-10-11T19:55:42.602Z,99133.25
2017-10-11T19:58:10.091Z,99130.98
2017-10-11T20:00:37.635Z,99132.84
2017-10-11T20:03:05.108Z,99134.72
2017-10-11T20:05:32.648Z,99136.64
2017-10-11T20:08:00.128Z,99138.80
2017-10-11T20:10:27.655Z,99138.68
2017-10-11T20:12:55.140Z,99132.87
2017-10-11T20:15:23.010Z,99137.09
2017-10-11T20:17:50.471Z,99142.13
2017-10-11T20:20:17.924Z,99138.19
2017-10-11T20:22:45.425Z,99138.36
2017-10-11T20:25:12.909Z,99139.76
2017-10-11T20:27:40.512Z,99141.16
2017-10-11T20:30:07.978Z,99134.22
2017-10-11T20:32:35.439Z,99140.19
2017-10-11T20:35:02.921Z,99133.49
2017-10-11T20:37:30.377Z,99131.54
2017-10-11T20:39:57.847Z,99132.96
2017-10-11T20:42:25.299Z,99141.03
2017-10-11T20:44:52.770Z,99141.59
2017-10-11T20:47:20.253Z,99140.73
2017-10-11T20:49:47.736Z,99141.84
2017-10-11T20:52:15.213Z,99138.56
2017-10-11T20:54:42.722Z,99141.77
2017-10-11T20:57:10.236Z,99141.38
2017-10-11T20:59:37.705Z,99140.43
2017-10-11T21:02:05.198Z,99143.84
2017-10-11T21:04:32.672Z,99146.95
2017-10-11T21:07:00.139Z,99146.00
2017-10-11T21:09:27.750Z,99144.79
2017-10-11T21:11:55.211Z,99146.00
2017-10-11T21:14:22.789Z,99145.31
2017-10-11T21:16:50.243Z,99148.08
2017-10-11T21:19:17.735Z,99156.09
2017-10-11T21:21:45.203Z,99157.26
2017-10-11T21:24:12.661Z,99159.09
2017-10-11T21:26:40.137Z,99163.11
2017-10-11T21:29:07.618Z,99158.20
2017-10-11T21:31:35.458Z,99153.48
2017-10-11T21:34:02.925Z,99151.02
2017-10-11T21:36:30.422Z,99156.73
2017-10-11T21:38:57.977Z,99157.47
2017-10-11T21:41:25.432Z,99157.53
2017-10-11T21:43:52.924Z,99149.41
2017-10-11T21:46:20.440Z,99152.86
2017-10-11T21:48:47.926Z,99154.80
2017-10-11T21:51:15.390Z,99147.37
2017-10-11T21:53:42.874Z,99147.33
2017-10-11T21:56:10.363Z,99138.38
2017-10-11T21:58:37.850Z,99139.25
2017-10-11T22:01:05.326Z,99137.95
2017-10-11T22:03:32.787Z,99127.95
2017-10-11T22:06:00.252Z,99125.11
2017-10-11T22:08:27.707Z,99124.22
2017-10-11T22:10:55.184Z,99125.55
2017-10-11T22:13:22.616Z,99116.48
2017-10-11T22:15:50.042Z,99116.20
2017-10-11T22:18:17.491Z,99117.33
2017-10-11T22:20:44.982Z,99118.45
2017-10-11T22:23:12.434Z,99118.27
2017-10-11T22:25:39.902Z,99114.95
2017-10-11T22:28:07.377Z,99117.42
2017-10-11T22:30:34.776Z,99111.19
2017-10-11T22:33:02.342Z,99117.60
2017-10-11T22:35:29.814Z,99112.68
2017-10-11T22:37:57.291Z,99110.69
2017-10-11T22:40:24.827Z,99106.14
2017-10-11T22:42:52.294Z,99112.33
2017-10-11T22:45:19.762Z,99115.02
2017-10-11T22:47:47.224Z,99109.19
2017-10-11T22:50:14.701Z,99111.05
2017-10-11T22:52:42.138Z,99112.08
2017-10-11T22:55:09.581Z,99111.84
2017-10-11T22:57:37.032Z,99119.78
2017-10-11T23:00:04.460Z,99113.83
2017-10-11T23:02:31.954Z,99111.55
2017-10-11T23:04:59.398Z,99111.72
2017-10-11T23:07:26.870Z,99104.44
2017-10-11T23:09:54.325Z,99100.06
2017-10-11T23:12:21.792Z,99090.28
2017-10-11T23:14:49.181Z,99092.80
2017-10-11T23:17:16.603Z,99093.12
2017-10-11T23:19:44.073Z,99085.84
2017-10-11T23:22:11.463Z,99087.64
2017-10-11T23:24:38.924Z,99091.67
2017-10-11T23:27:06.418Z,99098.62
2017-10-11T23:29:33.853Z,99095.57
2017-10-11T23:32:01.342Z,99099.28
2017-10-11T23:34:28.785Z,99092.98
2017-10-11T23:36:56.213Z,99101.56
2017-10-11T23:39:23.705Z,99104.34
2017-10-11T23:41:51.164Z,99101.16
2017-10-11T23:44:18.577Z,99095.27
2017-10-11T23:46:46.000Z,99090.28
2017-10-11T23:49:13.416Z,99088.67
2017-10-11T23:51:40.824Z,99094.25
2017-10-11T23:54:08.342Z,99089.93
2017-10-11T23:56:35.775Z,99091.19
2017-10-11T23:59:03.235Z,99095.44
